sensor_id;sensor_type;location;lat;lon;timestamp;P1;durP1;ratioP1;P2;durP2;ratioP2
73814;SDS011;62145;55.648;37.602;2023-07-16T00:01:11;11.27;;;7.23;;
73814;SDS011;62145;55.648;37.602;2023-07-16T00:03:37;12.73;;;7.60;;
73814;SDS011;62145;55.648;37.602;2023-07-16T00:06:03;14.07;;;8.03;;
73814;SDS011;62145;55.648;37.602;2023-07-16T00:08:29;12.43;;;7.68;;
73814;SDS011;62145;55.648;37.602;2023-07-16T00:10:54;13.33;;;7.30;;
73814;SDS011;62145;55.648;37.602;2023-07-16T00:13:20;11.70;;;7.13;;
73814;SDS011;62145;55.648;37.602;2023-07-16T00:15:46;12.82;;;7.53;;
73814;SDS011;62145;55.648;37.602;2023-07-16T00:18:12;15.38;;;8.40;;
73814;SDS011;62145;55.648;37.602;2023-07-16T00:20:38;11.03;;;7.40;;
73814;SDS011;62145;55.648;37.602;2023-07-16T00:23:04;12.25;;;7.53;;
73814;SDS011;62145;55.648;37.602;2023-07-16T00:25:32;14.18;;;7.40;;
73814;SDS011;62145;55.648;37.602;2023-07-16T00:28:01;12.57;;;7.20;;
73814;SDS011;62145;55.648;37.602;2023-07-16T00:30:31;10.83;;;7.17;;
73814;SDS011;62145;55.648;37.602;2023-07-16T00:32:58;13.00;;;7.50;;
73814;SDS011;62145;55.648;37.602;2023-07-16T00:35:25;12.00;;;7.18;;
73814;SDS011;62145;55.648;37.602;2023-07-16T00:37:51;11.15;;;7.47;;
73814;SDS011;62145;55.648;37.602;2023-07-16T00:40:19;11.40;;;6.83;;
73814;SDS011;62145;55.648;37.602;2023-07-16T00:42:58;12.75;;;7.65;;
73814;SDS011;62145;55.648;37.602;2023-07-16T00:45:27;12.95;;;8.13;;
73814;SDS011;62145;55.648;37.602;2023-07-16T00:47:54;11.98;;;7.30;;
73814;SDS011;62145;55.648;37.602;2023-07-16T00:50:24;10.15;;;6.97;;
73814;SDS011;62145;55.648;37.602;2023-07-16T00:52:50;12.73;;;7.77;;
73814;SDS011;62145;55.648;37.602;2023-07-16T00:55:16;12.70;;;7.13;;
73814;SDS011;62145;55.648;37.602;2023-07-16T00:57:42;12.70;;;6.90;;
73814;SDS011;62145;55.648;37.602;2023-07-16T01:00:08;10.13;;;6.57;;
73814;SDS011;62145;55.648;37.602;2023-07-16T01:02:35;10.33;;;6.57;;
73814;SDS011;62145;55.648;37.602;2023-07-16T01:05:01;10.90;;;7.03;;
73814;SDS011;62145;55.648;37.602;2023-07-16T01:07:29;13.20;;;6.68;;
73814;SDS011;62145;55.648;37.602;2023-07-16T01:09:57;11.25;;;6.65;;
73814;SDS011;62145;55.648;37.602;2023-07-16T01:12:23;10.88;;;6.50;;
73814;SDS011;62145;55.648;37.602;2023-07-16T01:14:50;9.30;;;6.53;;
73814;SDS011;62145;55.648;37.602;2023-07-16T01:17:17;10.40;;;6.00;;
73814;SDS011;62145;55.648;37.602;2023-07-16T01:19:45;11.73;;;6.10;;
73814;SDS011;62145;55.648;37.602;2023-07-16T01:22:35;13.18;;;6.75;;
73814;SDS011;62145;55.648;37.602;2023-07-16T01:29:09;9.40;;;6.18;;
73814;SDS011;62145;55.648;37.602;2023-07-16T01:31:22;11.82;;;6.68;;
73814;SDS011;62145;55.648;37.602;2023-07-16T01:33:50;10.02;;;6.68;;
73814;SDS011;62145;55.648;37.602;2023-07-16T01:36:22;11.82;;;6.57;;
73814;SDS011;62145;55.648;37.602;2023-07-16T01:38:52;9.50;;;6.10;;
73814;SDS011;62145;55.648;37.602;2023-07-16T01:41:31;9.93;;;6.15;;
73814;SDS011;62145;55.648;37.602;2023-07-16T01:44:00;9.68;;;6.20;;
73814;SDS011;62145;55.648;37.602;2023-07-16T01:46:28;10.57;;;6.38;;
73814;SDS011;62145;55.648;37.602;2023-07-16T01:48:56;10.25;;;6.30;;
73814;SDS011;62145;55.648;37.602;2023-07-16T01:51:22;9.03;;;5.70;;
73814;SDS011;62145;55.648;37.602;2023-07-16T01:54:09;11.48;;;6.00;;
73814;SDS011;62145;55.648;37.602;2023-07-16T01:56:37;10.23;;;6.05;;
73814;SDS011;62145;55.648;37.602;2023-07-16T01:59:08;10.48;;;5.90;;
73814;SDS011;62145;55.648;37.602;2023-07-16T02:01:37;10.25;;;6.18;;
73814;SDS011;62145;55.648;37.602;2023-07-16T02:04:03;8.53;;;5.80;;
73814;SDS011;62145;55.648;37.602;2023-07-16T02:06:33;10.88;;;6.00;;
73814;SDS011;62145;55.648;37.602;2023-07-16T02:09:03;9.40;;;5.75;;
73814;SDS011;62145;55.648;37.602;2023-07-16T02:11:35;9.32;;;6.30;;
73814;SDS011;62145;55.648;37.602;2023-07-16T02:14:06;9.63;;;6.07;;
73814;SDS011;62145;55.648;37.602;2023-07-16T02:16:35;9.85;;;5.75;;
73814;SDS011;62145;55.648;37.602;2023-07-16T02:19:02;10.45;;;6.07;;
73814;SDS011;62145;55.648;37.602;2023-07-16T02:21:28;10.63;;;6.47;;
73814;SDS011;62145;55.648;37.602;2023-07-16T02:23:54;10.73;;;6.60;;
73814;SDS011;62145;55.648;37.602;2023-07-16T02:26:25;12.25;;;6.20;;
73814;SDS011;62145;55.648;37.602;2023-07-16T02:28:56;9.98;;;6.30;;
73814;SDS011;62145;55.648;37.602;2023-07-16T02:31:29;8.90;;;5.93;;
73814;SDS011;62145;55.648;37.602;2023-07-16T02:34:00;12.45;;;6.40;;
73814;SDS011;62145;55.648;37.602;2023-07-16T02:36:26;11.63;;;6.60;;
73814;SDS011;62145;55.648;37.602;2023-07-16T02:38:57;9.85;;;6.38;;
73814;SDS011;62145;55.648;37.602;2023-07-16T02:41:24;11.88;;;6.35;;
73814;SDS011;62145;55.648;37.602;2023-07-16T02:43:58;11.57;;;6.32;;
73814;SDS011;62145;55.648;37.602;2023-07-16T02:46:29;9.38;;;6.35;;
73814;SDS011;62145;55.648;37.602;2023-07-16T02:48:58;10.77;;;6.50;;
73814;SDS011;62145;55.648;37.602;2023-07-16T02:51:27;10.73;;;6.40;;
73814;SDS011;62145;55.648;37.602;2023-07-16T02:53:55;9.80;;;6.00;;
73814;SDS011;62145;55.648;37.602;2023-07-16T02:56:21;11.38;;;6.63;;
73814;SDS011;62145;55.648;37.602;2023-07-16T02:58:49;11.80;;;6.47;;
73814;SDS011;62145;55.648;37.602;2023-07-16T03:01:16;10.23;;;6.33;;
73814;SDS011;62145;55.648;37.602;2023-07-16T03:03:52;10.65;;;6.25;;
73814;SDS011;62145;55.648;37.602;2023-07-16T03:06:24;9.45;;;5.97;;
73814;SDS011;62145;55.648;37.602;2023-07-16T03:08:51;10.50;;;6.50;;
73814;SDS011;62145;55.648;37.602;2023-07-16T03:11:19;9.70;;;6.00;;
73814;SDS011;62145;55.648;37.602;2023-07-16T03:13:46;9.97;;;6.57;;
73814;SDS011;62145;55.648;37.602;2023-07-16T03:16:14;11.32;;;6.80;;
73814;SDS011;62145;55.648;37.602;2023-07-16T03:18:42;10.77;;;6.45;;
73814;SDS011;62145;55.648;37.602;2023-07-16T03:21:17;10.82;;;6.45;;
73814;SDS011;62145;55.648;37.602;2023-07-16T03:23:46;9.63;;;6.30;;
73814;SDS011;62145;55.648;37.602;2023-07-16T03:26:12;10.70;;;6.30;;
73814;SDS011;62145;55.648;37.602;2023-07-16T03:28:42;10.95;;;6.55;;
73814;SDS011;62145;55.648;37.602;2023-07-16T03:31:10;9.40;;;6.35;;
73814;SDS011;62145;55.648;37.602;2023-07-16T03:33:41;9.05;;;6.25;;
73814;SDS011;62145;55.648;37.602;2023-07-16T03:36:21;10.45;;;6.43;;
73814;SDS011;62145;55.648;37.602;2023-07-16T03:38:53;9.50;;;6.40;;
73814;SDS011;62145;55.648;37.602;2023-07-16T03:41:26;9.95;;;6.53;;
73814;SDS011;62145;55.648;37.602;2023-07-16T03:43:54;9.98;;;6.57;;
73814;SDS011;62145;55.648;37.602;2023-07-16T03:46:23;10.20;;;6.13;;
73814;SDS011;62145;55.648;37.602;2023-07-16T03:48:50;9.73;;;6.47;;
73814;SDS011;62145;55.648;37.602;2023-07-16T03:51:20;11.17;;;6.70;;
73814;SDS011;62145;55.648;37.602;2023-07-16T03:53:47;9.70;;;6.35;;
73814;SDS011;62145;55.648;37.602;2023-07-16T03:56:15;10.95;;;6.75;;
73814;SDS011;62145;55.648;37.602;2023-07-16T03:58:45;9.73;;;6.25;;
73814;SDS011;62145;55.648;37.602;2023-07-16T04:01:14;10.48;;;6.03;;
73814;SDS011;62145;55.648;37.602;2023-07-16T04:03:43;10.80;;;6.37;;
73814;SDS011;62145;55.648;37.602;2023-07-16T04:06:09;10.50;;;6.55;;
73814;SDS011;62145;55.648;37.602;2023-07-16T04:08:41;9.52;;;5.93;;
73814;SDS011;62145;55.648;37.602;2023-07-16T04:11:07;9.05;;;5.80;;
73814;SDS011;62145;55.648;37.602;2023-07-16T04:13:36;10.00;;;6.30;;
73814;SDS011;62145;55.648;37.602;2023-07-16T04:16:02;9.50;;;6.27;;
73814;SDS011;62145;55.648;37.602;2023-07-16T04:18:36;10.57;;;6.10;;
73814;SDS011;62145;55.648;37.602;2023-07-16T04:21:03;10.15;;;6.68;;
73814;SDS011;62145;55.648;37.602;2023-07-16T04:23:29;10.80;;;6.00;;
73814;SDS011;62145;55.648;37.602;2023-07-16T04:25:55;11.33;;;6.30;;
73814;SDS011;62145;55.648;37.602;2023-07-16T04:28:21;10.02;;;6.13;;
73814;SDS011;62145;55.648;37.602;2023-07-16T04:30:47;10.52;;;6.15;;
73814;SDS011;62145;55.648;37.602;2023-07-16T04:33:13;10.57;;;6.10;;
73814;SDS011;62145;55.648;37.602;2023-07-16T04:35:39;11.63;;;6.38;;
73814;SDS011;62145;55.648;37.602;2023-07-16T04:38:04;10.15;;;6.30;;
73814;SDS011;62145;55.648;37.602;2023-07-16T04:40:30;9.40;;;6.43;;
73814;SDS011;62145;55.648;37.602;2023-07-16T04:42:56;8.98;;;6.45;;
73814;SDS011;62145;55.648;37.602;2023-07-16T04:45:22;11.75;;;6.55;;
73814;SDS011;62145;55.648;37.602;2023-07-16T04:47:48;8.87;;;6.10;;
73814;SDS011;62145;55.648;37.602;2023-07-16T04:50:14;11.63;;;6.60;;
73814;SDS011;62145;55.648;37.602;2023-07-16T04:52:40;10.32;;;6.53;;
73814;SDS011;62145;55.648;37.602;2023-07-16T04:55:06;10.43;;;6.67;;
73814;SDS011;62145;55.648;37.602;2023-07-16T04:57:32;10.88;;;6.32;;
73814;SDS011;62145;55.648;37.602;2023-07-16T04:59:58;10.88;;;6.70;;
73814;SDS011;62145;55.648;37.602;2023-07-16T05:02:24;9.60;;;6.38;;
73814;SDS011;62145;55.648;37.602;2023-07-16T05:04:50;11.00;;;6.57;;
73814;SDS011;62145;55.648;37.602;2023-07-16T05:07:16;9.13;;;6.55;;
73814;SDS011;62145;55.648;37.602;2023-07-16T05:09:42;12.65;;;6.50;;
73814;SDS011;62145;55.648;37.602;2023-07-16T05:12:08;9.23;;;6.57;;
73814;SDS011;62145;55.648;37.602;2023-07-16T05:14:42;9.38;;;6.78;;
73814;SDS011;62145;55.648;37.602;2023-07-16T05:17:12;10.55;;;6.90;;
73814;SDS011;62145;55.648;37.602;2023-07-16T05:19:39;10.32;;;6.70;;
73814;SDS011;62145;55.648;37.602;2023-07-16T05:22:05;9.53;;;7.20;;
73814;SDS011;62145;55.648;37.602;2023-07-16T05:24:31;11.47;;;7.03;;
73814;SDS011;62145;55.648;37.602;2023-07-16T05:26:57;11.25;;;6.85;;
73814;SDS011;62145;55.648;37.602;2023-07-16T05:29:23;10.13;;;6.65;;
73814;SDS011;62145;55.648;37.602;2023-07-16T05:31:49;12.40;;;7.38;;
73814;SDS011;62145;55.648;37.602;2023-07-16T05:34:15;12.67;;;7.13;;
73814;SDS011;62145;55.648;37.602;2023-07-16T05:36:41;12.80;;;7.18;;
73814;SDS011;62145;55.648;37.602;2023-07-16T05:39:09;14.85;;;7.75;;
73814;SDS011;62145;55.648;37.602;2023-07-16T05:41:38;10.65;;;7.25;;
73814;SDS011;62145;55.648;37.602;2023-07-16T05:44:05;12.20;;;7.33;;
73814;SDS011;62145;55.648;37.602;2023-07-16T05:46:31;9.23;;;6.80;;
73814;SDS011;62145;55.648;37.602;2023-07-16T05:48:58;11.30;;;6.97;;
73814;SDS011;62145;55.648;37.602;2023-07-16T05:51:24;11.13;;;7.30;;
73814;SDS011;62145;55.648;37.602;2023-07-16T05:53:50;10.73;;;7.30;;
73814;SDS011;62145;55.648;37.602;2023-07-16T05:56:15;11.82;;;7.38;;
73814;SDS011;62145;55.648;37.602;2023-07-16T05:58:41;11.05;;;7.25;;
73814;SDS011;62145;55.648;37.602;2023-07-16T06:01:08;11.23;;;6.57;;
73814;SDS011;62145;55.648;37.602;2023-07-16T06:03:34;10.40;;;6.68;;
73814;SDS011;62145;55.648;37.602;2023-07-16T06:05:59;12.00;;;7.07;;
73814;SDS011;62145;55.648;37.602;2023-07-16T06:08:25;12.00;;;7.17;;
73814;SDS011;62145;55.648;37.602;2023-07-16T06:10:51;10.60;;;6.82;;
73814;SDS011;62145;55.648;37.602;2023-07-16T06:13:17;9.90;;;6.90;;
73814;SDS011;62145;55.648;37.602;2023-07-16T06:15:43;11.50;;;7.17;;
73814;SDS011;62145;55.648;37.602;2023-07-16T06:18:09;12.75;;;6.65;;
73814;SDS011;62145;55.648;37.602;2023-07-16T06:20:35;11.00;;;6.90;;
73814;SDS011;62145;55.648;37.602;2023-07-16T06:23:01;10.30;;;6.57;;
73814;SDS011;62145;55.648;37.602;2023-07-16T06:25:27;10.17;;;6.63;;
73814;SDS011;62145;55.648;37.602;2023-07-16T06:27:53;10.35;;;6.40;;
73814;SDS011;62145;55.648;37.602;2023-07-16T06:30:18;10.83;;;6.43;;
73814;SDS011;62145;55.648;37.602;2023-07-16T06:32:44;9.23;;;5.88;;
73814;SDS011;62145;55.648;37.602;2023-07-16T06:35:10;10.60;;;6.57;;
73814;SDS011;62145;55.648;37.602;2023-07-16T06:37:36;9.27;;;6.40;;
73814;SDS011;62145;55.648;37.602;2023-07-16T06:40:02;8.90;;;5.95;;
73814;SDS011;62145;55.648;37.602;2023-07-16T06:42:29;10.93;;;5.63;;
73814;SDS011;62145;55.648;37.602;2023-07-16T06:44:55;9.60;;;6.05;;
73814;SDS011;62145;55.648;37.602;2023-07-16T06:47:21;9.90;;;6.60;;
73814;SDS011;62145;55.648;37.602;2023-07-16T06:49:47;9.10;;;6.30;;
73814;SDS011;62145;55.648;37.602;2023-07-16T06:52:20;9.63;;;5.75;;
73814;SDS011;62145;55.648;37.602;2023-07-16T06:54:47;8.63;;;5.85;;
73814;SDS011;62145;55.648;37.602;2023-07-16T06:57:12;8.30;;;5.83;;
73814;SDS011;62145;55.648;37.602;2023-07-16T06:59:38;10.38;;;6.03;;
73814;SDS011;62145;55.648;37.602;2023-07-16T07:02:04;8.30;;;6.13;;
73814;SDS011;62145;55.648;37.602;2023-07-16T07:04:31;10.32;;;6.10;;
73814;SDS011;62145;55.648;37.602;2023-07-16T07:06:57;8.10;;;6.03;;
73814;SDS011;62145;55.648;37.602;2023-07-16T07:09:23;7.53;;;5.97;;
73814;SDS011;62145;55.648;37.602;2023-07-16T07:11:48;9.07;;;6.23;;
73814;SDS011;62145;55.648;37.602;2023-07-16T07:14:14;9.25;;;5.85;;
73814;SDS011;62145;55.648;37.602;2023-07-16T07:16:40;9.90;;;6.20;;
73814;SDS011;62145;55.648;37.602;2023-07-16T07:19:06;9.00;;;6.47;;
73814;SDS011;62145;55.648;37.602;2023-07-16T07:21:32;8.50;;;6.30;;
73814;SDS011;62145;55.648;37.602;2023-07-16T07:23:58;9.03;;;5.87;;
73814;SDS011;62145;55.648;37.602;2023-07-16T07:26:24;9.70;;;6.28;;
73814;SDS011;62145;55.648;37.602;2023-07-16T07:28:50;8.65;;;5.72;;
73814;SDS011;62145;55.648;37.602;2023-07-16T07:31:16;10.47;;;6.20;;
73814;SDS011;62145;55.648;37.602;2023-07-16T07:33:41;9.68;;;5.70;;
73814;SDS011;62145;55.648;37.602;2023-07-16T07:36:07;9.85;;;5.60;;
73814;SDS011;62145;55.648;37.602;2023-07-16T07:38:33;9.73;;;5.73;;
73814;SDS011;62145;55.648;37.602;2023-07-16T07:40:59;9.10;;;5.78;;
73814;SDS011;62145;55.648;37.602;2023-07-16T07:43:25;7.50;;;5.20;;
73814;SDS011;62145;55.648;37.602;2023-07-16T07:45:51;8.13;;;5.80;;
73814;SDS011;62145;55.648;37.602;2023-07-16T07:48:17;8.88;;;5.65;;
73814;SDS011;62145;55.648;37.602;2023-07-16T07:50:43;10.17;;;5.90;;
73814;SDS011;62145;55.648;37.602;2023-07-16T07:53:09;8.38;;;5.97;;
73814;SDS011;62145;55.648;37.602;2023-07-16T07:55:35;9.48;;;5.95;;
73814;SDS011;62145;55.648;37.602;2023-07-16T07:58:00;7.87;;;5.40;;
73814;SDS011;62145;55.648;37.602;2023-07-16T08:00:26;9.93;;;6.13;;
73814;SDS011;62145;55.648;37.602;2023-07-16T08:02:52;8.60;;;5.70;;
73814;SDS011;62145;55.648;37.602;2023-07-16T08:05:18;7.07;;;5.23;;
73814;SDS011;62145;55.648;37.602;2023-07-16T08:07:44;8.98;;;5.53;;
73814;SDS011;62145;55.648;37.602;2023-07-16T08:10:10;9.38;;;5.68;;
73814;SDS011;62145;55.648;37.602;2023-07-16T08:12:36;9.67;;;5.43;;
73814;SDS011;62145;55.648;37.602;2023-07-16T08:15:02;8.13;;;5.15;;
73814;SDS011;62145;55.648;37.602;2023-07-16T08:17:29;7.80;;;5.20;;
73814;SDS011;62145;55.648;37.602;2023-07-16T08:19:55;8.43;;;5.70;;
73814;SDS011;62145;55.648;37.602;2023-07-16T08:22:21;7.90;;;5.25;;
73814;SDS011;62145;55.648;37.602;2023-07-16T08:24:47;9.60;;;5.35;;
73814;SDS011;62145;55.648;37.602;2023-07-16T08:27:13;9.75;;;5.25;;
73814;SDS011;62145;55.648;37.602;2023-07-16T08:29:39;8.47;;;5.07;;
73814;SDS011;62145;55.648;37.602;2023-07-16T08:32:04;7.30;;;5.30;;
73814;SDS011;62145;55.648;37.602;2023-07-16T08:34:30;8.45;;;5.00;;
73814;SDS011;62145;55.648;37.602;2023-07-16T08:36:56;10.02;;;5.63;;
73814;SDS011;62145;55.648;37.602;2023-07-16T08:39:22;8.70;;;5.20;;
73814;SDS011;62145;55.648;37.602;2023-07-16T08:41:48;6.82;;;4.90;;
73814;SDS011;62145;55.648;37.602;2023-07-16T08:44:14;8.90;;;4.60;;
73814;SDS011;62145;55.648;37.602;2023-07-16T08:46:40;7.78;;;4.43;;
73814;SDS011;62145;55.648;37.602;2023-07-16T08:49:06;8.45;;;4.72;;
73814;SDS011;62145;55.648;37.602;2023-07-16T08:51:33;6.38;;;4.57;;
73814;SDS011;62145;55.648;37.602;2023-07-16T08:53:59;6.90;;;4.70;;
73814;SDS011;62145;55.648;37.602;2023-07-16T08:56:26;7.93;;;4.97;;
73814;SDS011;62145;55.648;37.602;2023-07-16T08:58:54;8.30;;;5.18;;
73814;SDS011;62145;55.648;37.602;2023-07-16T09:01:30;7.88;;;5.03;;
73814;SDS011;62145;55.648;37.602;2023-07-16T09:04:03;7.22;;;4.63;;
73814;SDS011;62145;55.648;37.602;2023-07-16T09:06:32;6.60;;;4.70;;
73814;SDS011;62145;55.648;37.602;2023-07-16T09:09:03;7.93;;;4.43;;
73814;SDS011;62145;55.648;37.602;2023-07-16T09:11:33;7.32;;;4.72;;
73814;SDS011;62145;55.648;37.602;2023-07-16T09:14:04;7.35;;;4.63;;
73814;SDS011;62145;55.648;37.602;2023-07-16T09:16:35;6.22;;;4.40;;
73814;SDS011;62145;55.648;37.602;2023-07-16T09:19:11;6.97;;;4.23;;
73814;SDS011;62145;55.648;37.602;2023-07-16T09:21:41;8.20;;;4.57;;
73814;SDS011;62145;55.648;37.602;2023-07-16T09:24:10;8.27;;;4.68;;
73814;SDS011;62145;55.648;37.602;2023-07-16T09:26:49;6.80;;;4.30;;
73814;SDS011;62145;55.648;37.602;2023-07-16T09:29:24;8.05;;;4.68;;
73814;SDS011;62145;55.648;37.602;2023-07-16T09:34:37;7.32;;;3.85;;
73814;SDS011;62145;55.648;37.602;2023-07-16T09:37:08;6.18;;;3.70;;
73814;SDS011;62145;55.648;37.602;2023-07-16T09:39:46;6.72;;;3.55;;
73814;SDS011;62145;55.648;37.602;2023-07-16T09:42:14;8.10;;;4.00;;
73814;SDS011;62145;55.648;37.602;2023-07-16T09:44:54;7.33;;;3.93;;
73814;SDS011;62145;55.648;37.602;2023-07-16T09:47:26;5.88;;;3.83;;
73814;SDS011;62145;55.648;37.602;2023-07-16T09:49:57;7.05;;;4.03;;
73814;SDS011;62145;55.648;37.602;2023-07-16T09:52:32;6.68;;;3.80;;
73814;SDS011;62145;55.648;37.602;2023-07-16T09:55:03;5.70;;;3.45;;
73814;SDS011;62145;55.648;37.602;2023-07-16T09:57:37;6.83;;;3.50;;
73814;SDS011;62145;55.648;37.602;2023-07-16T10:00:11;5.63;;;3.40;;
73814;SDS011;62145;55.648;37.602;2023-07-16T10:02:42;5.70;;;3.00;;
73814;SDS011;62145;55.648;37.602;2023-07-16T10:05:13;6.43;;;3.30;;
73814;SDS011;62145;55.648;37.602;2023-07-16T10:10:45;6.00;;;3.33;;
73814;SDS011;62145;55.648;37.602;2023-07-16T10:13:37;6.07;;;3.25;;
73814;SDS011;62145;55.648;37.602;2023-07-16T10:16:07;6.47;;;3.63;;
73814;SDS011;62145;55.648;37.602;2023-07-16T10:18:52;5.63;;;3.20;;
73814;SDS011;62145;55.648;37.602;2023-07-16T10:21:22;6.70;;;3.70;;
73814;SDS011;62145;55.648;37.602;2023-07-16T10:23:56;6.33;;;3.57;;
73814;SDS011;62145;55.648;37.602;2023-07-16T10:26:32;6.18;;;2.97;;
73814;SDS011;62145;55.648;37.602;2023-07-16T10:29:01;5.28;;;2.90;;
73814;SDS011;62145;55.648;37.602;2023-07-16T10:31:27;4.90;;;3.10;;
73814;SDS011;62145;55.648;37.602;2023-07-16T10:34:02;5.53;;;3.20;;
73814;SDS011;62145;55.648;37.602;2023-07-16T10:36:40;6.07;;;2.95;;
73814;SDS011;62145;55.648;37.602;2023-07-16T10:39:11;5.72;;;3.30;;
73814;SDS011;62145;55.648;37.602;2023-07-16T10:41:40;5.85;;;3.30;;
73814;SDS011;62145;55.648;37.602;2023-07-16T10:44:09;6.60;;;3.47;;
73814;SDS011;62145;55.648;37.602;2023-07-16T10:46:38;5.07;;;3.27;;
73814;SDS011;62145;55.648;37.602;2023-07-16T10:49:10;5.82;;;3.22;;
73814;SDS011;62145;55.648;37.602;2023-07-16T10:51:40;5.70;;;3.15;;
73814;SDS011;62145;55.648;37.602;2023-07-16T10:54:08;5.95;;;3.22;;
73814;SDS011;62145;55.648;37.602;2023-07-16T10:56:43;5.43;;;3.20;;
73814;SDS011;62145;55.648;37.602;2023-07-16T10:59:11;5.57;;;3.10;;
73814;SDS011;62145;55.648;37.602;2023-07-16T11:01:39;7.28;;;3.40;;
73814;SDS011;62145;55.648;37.602;2023-07-16T11:04:07;5.43;;;3.30;;
73814;SDS011;62145;55.648;37.602;2023-07-16T11:06:33;5.97;;;3.40;;
73814;SDS011;62145;55.648;37.602;2023-07-16T11:09:05;6.13;;;3.43;;
73814;SDS011;62145;55.648;37.602;2023-07-16T11:11:34;5.60;;;3.40;;
73814;SDS011;62145;55.648;37.602;2023-07-16T11:14:03;6.57;;;3.75;;
73814;SDS011;62145;55.648;37.602;2023-07-16T11:16:37;6.00;;;3.65;;
73814;SDS011;62145;55.648;37.602;2023-07-16T11:19:06;6.45;;;3.70;;
73814;SDS011;62145;55.648;37.602;2023-07-16T11:21:36;8.10;;;3.70;;
73814;SDS011;62145;55.648;37.602;2023-07-16T11:24:14;6.28;;;3.60;;
73814;SDS011;62145;55.648;37.602;2023-07-16T11:26:56;6.15;;;3.63;;
73814;SDS011;62145;55.648;37.602;2023-07-16T11:29:25;6.97;;;3.70;;
73814;SDS011;62145;55.648;37.602;2023-07-16T11:31:53;8.17;;;4.10;;
73814;SDS011;62145;55.648;37.602;2023-07-16T11:34:20;6.50;;;3.97;;
73814;SDS011;62145;55.648;37.602;2023-07-16T11:36:47;6.93;;;3.80;;
73814;SDS011;62145;55.648;37.602;2023-07-16T11:39:13;6.35;;;3.75;;
73814;SDS011;62145;55.648;37.602;2023-07-16T11:41:39;6.03;;;4.13;;
73814;SDS011;62145;55.648;37.602;2023-07-16T11:44:06;6.63;;;4.50;;
73814;SDS011;62145;55.648;37.602;2023-07-16T11:46:33;7.05;;;4.80;;
73814;SDS011;62145;55.648;37.602;2023-07-16T11:48:59;7.10;;;4.50;;
73814;SDS011;62145;55.648;37.602;2023-07-16T11:51:26;7.38;;;4.32;;
73814;SDS011;62145;55.648;37.602;2023-07-16T11:53:52;7.37;;;4.40;;
73814;SDS011;62145;55.648;37.602;2023-07-16T11:56:20;7.47;;;4.32;;
73814;SDS011;62145;55.648;37.602;2023-07-16T11:58:47;8.00;;;4.50;;
73814;SDS011;62145;55.648;37.602;2023-07-16T12:01:14;6.15;;;4.00;;
73814;SDS011;62145;55.648;37.602;2023-07-16T12:03:40;7.53;;;3.93;;
73814;SDS011;62145;55.648;37.602;2023-07-16T12:06:06;7.32;;;4.43;;
73814;SDS011;62145;55.648;37.602;2023-07-16T12:08:33;6.20;;;4.07;;
73814;SDS011;62145;55.648;37.602;2023-07-16T12:10:59;7.00;;;4.90;;
73814;SDS011;62145;55.648;37.602;2023-07-16T12:13:25;6.80;;;4.45;;
73814;SDS011;62145;55.648;37.602;2023-07-16T12:15:50;5.93;;;3.92;;
73814;SDS011;62145;55.648;37.602;2023-07-16T12:18:16;5.78;;;3.92;;
73814;SDS011;62145;55.648;37.602;2023-07-16T12:20:42;6.03;;;4.00;;
73814;SDS011;62145;55.648;37.602;2023-07-16T12:23:08;6.07;;;4.00;;
73814;SDS011;62145;55.648;37.602;2023-07-16T12:25:34;6.40;;;3.65;;
73814;SDS011;62145;55.648;37.602;2023-07-16T12:28:00;6.43;;;4.50;;
73814;SDS011;62145;55.648;37.602;2023-07-16T12:30:27;6.38;;;4.13;;
73814;SDS011;62145;55.648;37.602;2023-07-16T12:32:53;5.82;;;4.07;;
73814;SDS011;62145;55.648;37.602;2023-07-16T12:35:19;7.07;;;4.40;;
73814;SDS011;62145;55.648;37.602;2023-07-16T12:37:44;6.40;;;4.32;;
73814;SDS011;62145;55.648;37.602;2023-07-16T12:40:10;7.93;;;4.20;;
73814;SDS011;62145;55.648;37.602;2023-07-16T12:42:37;8.83;;;4.03;;
73814;SDS011;62145;55.648;37.602;2023-07-16T12:45:02;5.97;;;4.00;;
73814;SDS011;62145;55.648;37.602;2023-07-16T12:47:29;7.05;;;4.30;;
73814;SDS011;62145;55.648;37.602;2023-07-16T12:49:55;7.57;;;4.30;;
73814;SDS011;62145;55.648;37.602;2023-07-16T12:52:21;7.82;;;4.35;;
73814;SDS011;62145;55.648;37.602;2023-07-16T12:54:47;8.60;;;4.53;;
73814;SDS011;62145;55.648;37.602;2023-07-16T12:57:12;7.07;;;4.40;;
73814;SDS011;62145;55.648;37.602;2023-07-16T12:59:38;8.20;;;4.35;;
73814;SDS011;62145;55.648;37.602;2023-07-16T13:02:04;6.80;;;4.15;;
73814;SDS011;62145;55.648;37.602;2023-07-16T13:04:31;7.77;;;4.40;;
73814;SDS011;62145;55.648;37.602;2023-07-16T13:06:57;7.53;;;4.07;;
73814;SDS011;62145;55.648;37.602;2023-07-16T13:09:23;6.03;;;4.10;;
73814;SDS011;62145;55.648;37.602;2023-07-16T13:11:48;6.93;;;4.20;;
73814;SDS011;62145;55.648;37.602;2023-07-16T13:14:14;7.30;;;3.90;;
73814;SDS011;62145;55.648;37.602;2023-07-16T13:16:42;6.30;;;4.38;;
73814;SDS011;62145;55.648;37.602;2023-07-16T13:19:08;6.85;;;4.15;;
73814;SDS011;62145;55.648;37.602;2023-07-16T13:21:33;7.33;;;4.27;;
73814;SDS011;62145;55.648;37.602;2023-07-16T13:23:59;6.45;;;4.30;;
73814;SDS011;62145;55.648;37.602;2023-07-16T13:26:25;6.30;;;4.50;;
73814;SDS011;62145;55.648;37.602;2023-07-16T13:28:51;6.72;;;4.15;;
73814;SDS011;62145;55.648;37.602;2023-07-16T13:31:17;7.10;;;4.50;;
73814;SDS011;62145;55.648;37.602;2023-07-16T13:33:43;7.53;;;4.70;;
73814;SDS011;62145;55.648;37.602;2023-07-16T13:36:09;6.60;;;4.43;;
73814;SDS011;62145;55.648;37.602;2023-07-16T13:38:35;8.35;;;4.70;;
73814;SDS011;62145;55.648;37.602;2023-07-16T13:41:00;7.27;;;4.20;;
73814;SDS011;62145;55.648;37.602;2023-07-16T13:43:26;7.30;;;4.50;;
73814;SDS011;62145;55.648;37.602;2023-07-16T13:45:52;6.47;;;4.40;;
73814;SDS011;62145;55.648;37.602;2023-07-16T13:48:18;8.13;;;4.20;;
73814;SDS011;62145;55.648;37.602;2023-07-16T13:50:44;6.70;;;3.90;;
73814;SDS011;62145;55.648;37.602;2023-07-16T13:53:09;5.73;;;3.83;;
73814;SDS011;62145;55.648;37.602;2023-07-16T13:55:35;7.40;;;3.80;;
73814;SDS011;62145;55.648;37.602;2023-07-16T13:58:01;5.40;;;3.77;;
73814;SDS011;62145;55.648;37.602;2023-07-16T14:00:27;6.55;;;3.78;;
73814;SDS011;62145;55.648;37.602;2023-07-16T14:02:53;6.45;;;3.90;;
73814;SDS011;62145;55.648;37.602;2023-07-16T14:05:18;7.60;;;3.63;;
73814;SDS011;62145;55.648;37.602;2023-07-16T14:07:46;5.60;;;3.72;;
73814;SDS011;62145;55.648;37.602;2023-07-16T14:10:12;5.85;;;3.97;;
73814;SDS011;62145;55.648;37.602;2023-07-16T14:12:41;5.93;;;3.97;;
73814;SDS011;62145;55.648;37.602;2023-07-16T14:15:09;6.82;;;4.20;;
73814;SDS011;62145;55.648;37.602;2023-07-16T14:17:35;6.88;;;4.10;;
73814;SDS011;62145;55.648;37.602;2023-07-16T14:20:01;6.33;;;3.83;;
73814;SDS011;62145;55.648;37.602;2023-07-16T14:22:28;6.30;;;4.00;;
73814;SDS011;62145;55.648;37.602;2023-07-16T14:24:54;5.97;;;4.10;;
73814;SDS011;62145;55.648;37.602;2023-07-16T14:27:20;7.05;;;4.30;;
73814;SDS011;62145;55.648;37.602;2023-07-16T14:29:46;7.37;;;3.97;;
73814;SDS011;62145;55.648;37.602;2023-07-16T14:32:12;6.22;;;4.30;;
73814;SDS011;62145;55.648;37.602;2023-07-16T14:34:38;6.45;;;3.75;;
73814;SDS011;62145;55.648;37.602;2023-07-16T14:37:04;5.97;;;4.20;;
73814;SDS011;62145;55.648;37.602;2023-07-16T14:39:30;6.40;;;4.07;;
73814;SDS011;62145;55.648;37.602;2023-07-16T14:41:56;6.38;;;3.95;;
73814;SDS011;62145;55.648;37.602;2023-07-16T14:44:22;7.07;;;4.10;;